Time;durP1;ratioP1;P1;durP2;ratioP2;P2;SDS_P1;SDS_P2;PMS_P1;PMS_P2;Temp;Humidity;BMP_temperature;BMP_pressure;BME280_temperature;BME280_humidity;BME280_pressure;Samples;Min_cycle;Max_cycle;Signal;HPM_P1;HPM_P2
2022/06/29 00:00:55;;;;;;;0.10;0.10;;;15.60;99.90;;;;;;4950012;28;20656;-89
2022/06/29 00:03:21;;;;;;;0.10;0.10;;;15.70;99.90;;;;;;4950012;28;20546;-89
2022/06/29 00:05:47;;;;;;;0.10;0.10;;;16.00;99.90;;;;;;4943366;28;20284;-89
2022/06/29 00:08:12;;;;;;;0.10;0.10;;;15.90;99.90;;;;;;4938890;28;20186;-88
2022/06/29 00:10:39;;;;;;;0.10;0.10;;;15.90;99.90;;;;;;4940338;28;20600;-89
2022/06/29 00:13:04;;;;;;;0.10;0.10;;;15.80;99.90;;;;;;4931916;29;20199;-89
2022/06/29 00:15:30;;;;;;;0.10;0.10;;;15.70;99.90;;;;;;4938027;28;20532;-89
2022/06/29 00:17:56;;;;;;;0.10;0.10;;;15.70;99.90;;;;;;4959195;28;20224;-88
2022/06/29 00:20:22;;;;;;;0.10;0.10;;;15.60;99.90;;;;;;4931837;28;20214;-88
2022/06/29 00:22:48;;;;;;;0.10;0.10;;;15.60;99.90;;;;;;4931558;29;20482;-89
2022/06/29 00:25:14;;;;;;;0.10;0.10;;;15.60;99.90;;;;;;4950290;28;20201;-89
2022/06/29 00:27:41;;;;;;;0.10;0.10;;;15.60;99.90;;;;;;4948353;28;20445;-89
2022/06/29 00:30:08;;;;;;;0.10;0.10;;;15.70;99.90;;;;;;4935549;28;20454;-89
2022/06/29 00:32:33;;;;;;;0.10;0.10;;;15.60;99.90;;;;;;4933537;28;20954;-88
2022/06/29 00:34:59;;;;;;;0.10;0.10;;;15.70;99.90;;;;;;4950121;28;20453;-88
2022/06/29 00:37:26;;;;;;;0.10;0.10;;;15.80;99.90;;;;;;4940195;28;20197;-88
2022/06/29 00:39:51;;;;;;;0.10;0.10;;;15.90;99.90;;;;;;4937297;29;20486;-89
2022/06/29 00:42:17;;;;;;;0.10;0.10;;;15.80;99.90;;;;;;4958091;28;21001;-89
2022/06/29 00:44:42;;;;;;;0.10;0.10;;;15.80;99.90;;;;;;4950166;28;20242;-89
2022/06/29 00:47:08;;;;;;;0.10;0.10;;;15.80;99.90;;;;;;4947418;28;20203;-89
2022/06/29 00:49:34;;;;;;;0.10;0.10;;;15.80;99.90;;;;;;4951077;28;20198;-89
2022/06/29 00:52:09;;;;;;;0.10;0.10;;;15.80;99.90;;;;;;4945825;28;20258;-89
2022/06/29 00:54:40;;;;;;;0.10;0.10;;;15.90;99.90;;;;;;4936368;28;20446;-88
2022/06/29 00:57:14;;;;;;;0.10;0.10;;;15.80;99.90;;;;;;4928785;29;20557;-89
2022/06/29 00:59:45;;;;;;;0.10;0.10;;;15.70;99.90;;;;;;4934349;28;21036;-88
2022/06/29 01:02:12;;;;;;;0.10;0.10;;;15.70;99.90;;;;;;4946141;28;20489;-88
2022/06/29 01:04:39;;;;;;;0.10;0.10;;;15.60;99.90;;;;;;4947135;28;20438;-89
2022/06/29 01:07:05;;;;;;;0.10;0.10;;;15.50;99.90;;;;;;4952666;28;20450;-88
2022/06/29 01:09:30;;;;;;;0.10;0.10;;;15.50;99.90;;;;;;4933950;29;20454;-88
2022/06/29 01:11:57;;;;;;;0.10;0.10;;;15.30;99.90;;;;;;4945811;28;20442;-88
2022/06/29 01:14:23;;;;;;;0.10;0.10;;;15.30;99.90;;;;;;4952199;28;20249;-88
2022/06/29 01:16:48;;;;;;;0.10;0.10;;;15.30;99.90;;;;;;4937959;28;20485;-87
2022/06/29 01:19:14;;;;;;;0.10;0.10;;;15.20;99.90;;;;;;4928871;28;20628;-88
2022/06/29 01:21:42;;;;;;;0.10;0.10;;;15.20;99.90;;;;;;4950432;28;20194;-88
2022/06/29 01:24:07;;;;;;;0.10;0.10;;;15.10;99.90;;;;;;4946821;28;20308;-89
2022/06/29 01:26:33;;;;;;;0.10;0.10;;;15.10;99.90;;;;;;4927352;29;21117;-88
2022/06/29 01:28:58;;;;;;;0.10;0.10;;;15.10;99.90;;;;;;4950267;28;20183;-89
2022/06/29 01:31:24;;;;;;;0.10;0.10;;;15.10;99.90;;;;;;4948379;28;20222;-88
2022/06/29 01:33:49;;;;;;;0.10;0.10;;;15.00;99.90;;;;;;4949280;28;20190;-88
2022/06/29 01:36:17;;;;;;;0.10;0.10;;;15.00;99.90;;;;;;4944812;28;20209;-88
2022/06/29 01:38:44;;;;;;;0.10;0.10;;;15.00;99.90;;;;;;4939067;29;20229;-88
2022/06/29 01:41:10;;;;;;;0.10;0.10;;;15.00;99.90;;;;;;4949766;28;20489;-88
2022/06/29 01:43:40;;;;;;;0.10;0.10;;;14.90;99.90;;;;;;4925515;29;20541;-87
2022/06/29 01:46:06;;;;;;;0.10;0.10;;;14.90;99.90;;;;;;4946585;28;20492;-87
2022/06/29 01:48:32;;;;;;;0.10;0.10;;;14.80;99.90;;;;;;4927734;28;20444;-88
2022/06/29 01:50:58;;;;;;;0.10;0.10;;;14.80;99.90;;;;;;4942242;28;20474;-89
2022/06/29 01:53:24;;;;;;;0.10;0.10;;;14.80;99.90;;;;;;4952731;28;20970;-88
2022/06/29 01:55:50;;;;;;;0.10;0.10;;;14.80;99.90;;;;;;4949600;28;20852;-87
2022/06/29 01:58:15;;;;;;;0.10;0.10;;;14.80;99.90;;;;;;4941725;28;20258;-88
2022/06/29 02:00:41;;;;;;;0.10;0.10;;;14.70;99.90;;;;;;4942111;28;20218;-89
2022/06/29 02:03:07;;;;;;;0.10;0.10;;;14.60;99.90;;;;;;4930853;28;20199;-88
2022/06/29 02:05:32;;;;;;;0.10;0.10;;;14.60;99.90;;;;;;4931754;29;20442;-90
2022/06/29 02:07:58;;;;;;;0.10;0.10;;;14.60;99.90;;;;;;4932473;29;20197;-89
2022/06/29 02:10:24;;;;;;;0.10;0.10;;;14.50;99.90;;;;;;4943203;28;20199;-88
2022/06/29 02:12:49;;;;;;;0.10;0.10;;;14.50;99.90;;;;;;4948641;28;20190;-88
2022/06/29 02:15:15;;;;;;;0.10;0.10;;;14.50;99.90;;;;;;4949760;28;20534;-89
2022/06/29 02:17:41;;;;;;;0.10;0.10;;;14.40;99.90;;;;;;4945441;28;20194;-89
2022/06/29 02:20:07;;;;;;;0.10;0.10;;;14.40;99.90;;;;;;4947626;28;20701;-89
2022/06/29 02:22:34;;;;;;;0.10;0.10;;;14.40;99.90;;;;;;4942850;28;20199;-88
2022/06/29 02:25:00;;;;;;;0.10;0.10;;;14.30;99.90;;;;;;4936497;28;20950;-87
2022/06/29 02:27:25;;;;;;;0.10;0.10;;;14.30;99.90;;;;;;4937819;28;20454;-87
2022/06/29 02:29:51;;;;;;;0.10;0.10;;;14.30;99.90;;;;;;4941670;28;20233;-87
2022/06/29 02:35:00;;;;;;;0.10;0.10;;;14.40;99.90;;;;;;4945570;28;21606;-88
2022/06/29 02:37:26;;;;;;;0.10;0.10;;;14.40;99.90;;;;;;4949455;28;20946;-89
2022/06/29 02:39:51;;;;;;;0.10;0.10;;;14.30;99.90;;;;;;4926754;28;20205;-88
2022/06/29 02:42:17;;;;;;;0.10;0.10;;;14.30;99.90;;;;;;4939368;28;20277;-87
2022/06/29 02:44:43;;;;;;;0.10;0.10;;;14.30;99.90;;;;;;4944361;28;20769;-87
2022/06/29 02:47:09;;;;;;;0.10;0.10;;;14.20;99.90;;;;;;4949648;28;20195;-87
2022/06/29 02:49:35;;;;;;;0.10;0.10;;;14.20;99.90;;;;;;4928611;29;20183;-87
2022/06/29 02:52:00;;;;;;;0.10;0.10;;;14.20;99.90;;;;;;4948969;28;20456;-87
2022/06/29 02:54:26;;;;;;;0.10;0.10;;;14.20;99.90;;;;;;4948555;28;21065;-87
2022/06/29 02:56:53;;;;;;;0.10;0.10;;;14.20;99.90;;;;;;4946334;28;20623;-87
2022/06/29 02:59:19;;;;;;;0.10;0.10;;;14.20;99.90;;;;;;4932305;28;20194;-86
2022/06/29 03:01:45;;;;;;;0.10;0.10;;;14.10;99.90;;;;;;4940638;28;20458;-88
2022/06/29 03:04:10;;;;;;;0.10;0.10;;;14.10;99.90;;;;;;4949121;28;20450;-88
2022/06/29 03:06:36;;;;;;;0.10;0.10;;;14.10;99.90;;;;;;4947385;28;20205;-88
2022/06/29 03:09:01;;;;;;;0.10;0.10;;;14.10;99.90;;;;;;4928644;28;20187;-88
2022/06/29 03:11:27;;;;;;;0.10;0.10;;;14.20;99.90;;;;;;4947859;28;20673;-88
2022/06/29 03:13:53;;;;;;;0.20;0.20;;;14.10;99.90;;;;;;4941981;28;20186;-87
2022/06/29 03:16:18;;;;;;;0.10;0.10;;;14.10;99.90;;;;;;4921993;29;20214;-87
2022/06/29 03:18:44;;;;;;;0.10;0.10;;;14.10;99.90;;;;;;4935436;29;20285;-88
2022/06/29 03:21:10;;;;;;;0.10;0.10;;;14.10;99.90;;;;;;4937373;29;20668;-87
2022/06/29 03:23:36;;;;;;;0.10;0.10;;;14.10;99.90;;;;;;4939306;28;20198;-87
2022/06/29 03:26:02;;;;;;;0.10;0.10;;;14.20;99.90;;;;;;4931313;28;20511;-87
2022/06/29 03:28:27;;;;;;;0.10;0.10;;;14.20;99.90;;;;;;4948098;28;20203;-87
2022/06/29 03:30:53;;;;;;;0.10;0.10;;;14.20;99.90;;;;;;4924391;29;20191;-88
2022/06/29 03:33:18;;;;;;;0.10;0.10;;;14.20;99.90;;;;;;4933839;29;20237;-87
2022/06/29 03:35:44;;;;;;;0.10;0.10;;;14.20;99.90;;;;;;4938861;28;20233;-88
2022/06/29 03:38:10;;;;;;;0.10;0.10;;;14.30;99.90;;;;;;4946911;28;20639;-88
2022/06/29 03:40:35;;;;;;;0.10;0.10;;;14.30;99.90;;;;;;4935613;28;20282;-87
2022/06/29 03:43:01;;;;;;;0.10;0.10;;;14.30;99.90;;;;;;4936933;28;20214;-87
2022/06/29 03:45:26;;;;;;;0.10;0.10;;;14.30;99.90;;;;;;4947044;28;21606;-88
2022/06/29 03:47:52;;;;;;;0.10;0.10;;;14.30;99.90;;;;;;4921005;28;20234;-87
2022/06/29 03:50:18;;;;;;;0.10;0.10;;;14.30;99.90;;;;;;4947206;28;20234;-88
2022/06/29 03:52:43;;;;;;;0.10;0.10;;;14.30;99.90;;;;;;4933227;28;20278;-87
2022/06/29 03:55:09;;;;;;;0.10;0.10;;;14.30;99.90;;;;;;4938950;28;20190;-87
2022/06/29 03:57:36;;;;;;;0.10;0.10;;;14.40;99.90;;;;;;4944764;28;20191;-87
2022/06/29 04:00:03;;;;;;;0.10;0.10;;;14.30;99.90;;;;;;4950938;28;20194;-89
2022/06/29 04:02:28;;;;;;;0.10;0.10;;;14.40;99.90;;;;;;4936715;28;20962;-88
2022/06/29 04:04:54;;;;;;;0.10;0.10;;;14.50;99.90;;;;;;4949683;28;20449;-87
2022/06/29 04:07:20;;;;;;;0.10;0.10;;;14.60;99.90;;;;;;4936449;28;20210;-87
2022/06/29 04:09:45;;;;;;;0.10;0.10;;;14.70;99.90;;;;;;4940687;28;20217;-87
2022/06/29 04:12:11;;;;;;;0.10;0.10;;;14.60;99.90;;;;;;4935254;29;20194;-88
2022/06/29 04:14:37;;;;;;;0.10;0.10;;;14.80;99.90;;;;;;4951929;28;20263;-88
2022/06/29 04:17:03;;;;;;;0.10;0.10;;;15.00;99.90;;;;;;4945441;28;20491;-87
2022/06/29 04:19:28;;;;;;;0.10;0.10;;;15.10;99.90;;;;;;4929600;29;20191;-87
2022/06/29 04:21:54;;;;;;;0.10;0.10;;;15.30;99.90;;;;;;4942718;29;20201;-87
2022/06/29 04:24:21;;;;;;;0.10;0.10;;;15.50;99.90;;;;;;4934609;29;20183;-87
2022/06/29 04:26:47;;;;;;;0.10;0.10;;;15.40;99.90;;;;;;4951119;28;20458;-88
2022/06/29 04:29:12;;;;;;;0.10;0.10;;;15.50;99.90;;;;;;4939420;28;20445;-87
2022/06/29 04:31:38;;;;;;;0.10;0.10;;;15.50;99.90;;;;;;4931086;28;20197;-87
2022/06/29 04:34:04;;;;;;;0.10;0.10;;;15.60;99.90;;;;;;4954260;28;20259;-88
2022/06/29 04:36:29;;;;;;;0.10;0.10;;;15.70;99.90;;;;;;4952856;28;20237;-87
2022/06/29 04:38:55;;;;;;;0.10;0.10;;;15.80;99.90;;;;;;4953338;28;20189;-88
2022/06/29 04:41:22;;;;;;;0.10;0.10;;;15.80;99.90;;;;;;4929362;29;22484;-88
2022/06/29 04:43:48;;;;;;;0.10;0.10;;;16.00;99.90;;;;;;4947677;28;20187;-90
2022/06/29 04:46:20;;;;;;;0.10;0.10;;;16.10;99.90;;;;;;4932530;29;20601;-89
2022/06/29 04:48:59;;;;;;;0.10;0.10;;;16.20;99.90;;;;;;4926272;28;20447;-89
2022/06/29 04:51:28;;;;;;;0.10;0.10;;;16.30;99.90;;;;;;4935136;29;20817;-90
2022/06/29 04:53:55;;;;;;;0.10;0.10;;;16.40;99.90;;;;;;4948600;28;20441;-89
2022/06/29 04:56:22;;;;;;;0.10;0.10;;;16.60;99.90;;;;;;4947760;28;20506;-89
2022/06/29 04:58:48;;;;;;;0.10;0.10;;;16.70;99.90;;;;;;4946301;28;20512;-89
2022/06/29 05:01:14;;;;;;;0.10;0.10;;;16.80;99.90;;;;;;4944628;28;20493;-90
2022/06/29 05:03:40;;;;;;;0.10;0.10;;;17.00;99.90;;;;;;4954212;28;20532;-87
2022/06/29 05:06:05;;;;;;;0.10;0.10;;;17.10;99.90;;;;;;4940127;28;20187;-88
2022/06/29 05:08:31;;;;;;;0.10;0.10;;;17.20;99.90;;;;;;4949468;28;20191;-87
2022/06/29 05:10:57;;;;;;;0.10;0.10;;;17.30;99.90;;;;;;4949002;28;20195;-86
2022/06/29 05:13:22;;;;;;;0.10;0.10;;;17.30;99.90;;;;;;4933209;28;20195;-87
2022/06/29 05:15:48;;;;;;;0.10;0.10;;;17.40;99.90;;;;;;4950460;28;20223;-87
2022/06/29 05:18:14;;;;;;;0.10;0.10;;;17.50;99.90;;;;;;4935902;28;20195;-88
2022/06/29 05:20:40;;;;;;;0.10;0.10;;;17.60;99.90;;;;;;4942634;29;20461;-87
2022/06/29 05:23:05;;;;;;;0.10;0.10;;;17.60;99.90;;;;;;4949647;29;20183;-88
2022/06/29 05:25:31;;;;;;;0.10;0.10;;;17.60;99.90;;;;;;4935333;29;20246;-87
2022/06/29 05:27:57;;;;;;;0.10;0.10;;;17.70;99.90;;;;;;4954006;28;20254;-88
2022/06/29 05:30:23;;;;;;;0.10;0.10;;;17.80;99.90;;;;;;4933875;29;21140;-87
2022/06/29 05:32:48;;;;;;;0.10;0.10;;;17.90;99.90;;;;;;4932457;29;20590;-87
2022/06/29 05:35:14;;;;;;;0.10;0.00;;;18.00;99.90;;;;;;4950682;28;20194;-86
2022/06/29 05:37:39;;;;;;;0.10;0.10;;;18.10;99.90;;;;;;4947666;28;20245;-87
2022/06/29 05:40:05;;;;;;;0.10;0.10;;;18.20;99.90;;;;;;4948753;28;20618;-87
2022/06/29 05:42:31;;;;;;;0.10;0.10;;;18.20;99.90;;;;;;4949327;28;20187;-85
2022/06/29 05:44:57;;;;;;;0.10;0.10;;;18.30;99.90;;;;;;4958835;28;20545;-86
2022/06/29 05:47:22;;;;;;;0.10;0.10;;;18.30;99.90;;;;;;4940299;28;20190;-88
2022/06/29 05:49:48;;;;;;;0.10;0.10;;;18.40;99.90;;;;;;4947155;28;20217;-86
2022/06/29 05:52:13;;;;;;;0.10;0.10;;;18.30;99.90;;;;;;4949689;28;20197;-86
2022/06/29 05:54:39;;;;;;;0.10;0.10;;;18.30;99.90;;;;;;4941101;28;20190;-88
2022/06/29 05:57:05;;;;;;;0.10;0.10;;;18.40;99.90;;;;;;4948645;28;20306;-86
2022/06/29 05:59:31;;;;;;;0.10;0.10;;;18.50;99.90;;;;;;4951750;28;20187;-86
2022/06/29 06:01:57;;;;;;;0.10;0.10;;;18.50;99.90;;;;;;4933985;29;20726;-87
2022/06/29 06:04:22;;;;;;;0.10;0.00;;;18.60;99.90;;;;;;4951184;28;20442;-86
2022/06/29 06:06:48;;;;;;;0.10;0.10;;;18.70;99.90;;;;;;4950333;28;20194;-86
2022/06/29 06:09:14;;;;;;;0.10;0.10;;;18.70;99.90;;;;;;4951287;28;20559;-87
2022/06/29 06:11:40;;;;;;;0.10;0.10;;;18.80;99.90;;;;;;4950652;28;20199;-86
2022/06/29 06:14:05;;;;;;;0.10;0.10;;;18.90;99.90;;;;;;4948381;28;20451;-86
2022/06/29 06:16:31;;;;;;;0.10;0.10;;;19.00;99.90;;;;;;4934379;29;20245;-86
2022/06/29 06:18:56;;;;;;;0.10;0.10;;;19.00;99.90;;;;;;4950925;28;20257;-87
2022/06/29 06:21:22;;;;;;;0.10;0.10;;;19.00;99.90;;;;;;4929453;28;20186;-86
2022/06/29 06:23:48;;;;;;;0.10;0.10;;;19.00;99.90;;;;;;4947080;28;20198;-86
2022/06/29 06:26:15;;;;;;;0.10;0.10;;;19.10;99.90;;;;;;4949554;28;20270;-88
2022/06/29 06:28:40;;;;;;;0.10;0.10;;;19.30;99.90;;;;;;4945139;28;22389;-91
2022/06/29 06:31:07;;;;;;;0.10;0.00;;;19.40;99.90;;;;;;4942754;29;20489;-90
2022/06/29 06:33:33;;;;;;;0.10;0.00;;;19.50;99.90;;;;;;4932428;29;20190;-93
2022/06/29 06:35:58;;;;;;;0.10;0.00;;;19.50;99.90;;;;;;4939811;28;20511;-87
2022/06/29 06:38:24;;;;;;;0.10;0.10;;;19.40;99.90;;;;;;4927812;29;20506;-88
2022/06/29 06:43:34;;;;;;;0.10;0.10;;;19.40;99.90;;;;;;4950913;28;20612;-92
2022/06/29 06:45:59;;;;;;;0.10;0.10;;;19.40;99.90;;;;;;4951532;28;20485;-89
2022/06/29 06:48:25;;;;;;;0.10;0.00;;;19.50;99.90;;;;;;4948858;28;20184;-90
2022/06/29 06:50:50;;;;;;;0.10;0.10;;;19.70;99.90;;;;;;4951242;28;20261;-92
2022/06/29 06:53:16;;;;;;;0.10;0.00;;;19.80;99.90;;;;;;4947612;28;20629;-91
2022/06/29 06:55:41;;;;;;;0.10;0.10;;;19.90;99.90;;;;;;4925573;29;20215;-89
2022/06/29 06:58:07;;;;;;;0.10;0.10;;;20.10;99.90;;;;;;4931142;29;20579;-91
2022/06/29 07:00:32;;;;;;;0.10;0.10;;;20.10;99.90;;;;;;4947854;28;20301;-87
2022/06/29 07:02:58;;;;;;;0.10;0.10;;;20.20;99.90;;;;;;4943360;29;20195;-93
2022/06/29 07:05:25;;;;;;;0.10;0.10;;;20.40;99.90;;;;;;4948260;28;20647;-89
2022/06/29 07:07:51;;;;;;;0.10;0.00;;;20.60;99.90;;;;;;4948457;28;20187;-96
2022/06/29 07:10:16;;;;;;;0.10;0.10;;;20.70;99.90;;;;;;4957750;28;20504;-90
2022/06/29 07:12:41;;;;;;;0.10;0.00;;;20.70;99.90;;;;;;4944902;29;20241;-89
2022/06/29 07:15:07;;;;;;;0.10;0.10;;;20.80;99.90;;;;;;4946741;29;20191;-90
2022/06/29 07:17:33;;;;;;;0.10;0.10;;;20.90;99.90;;;;;;4935726;29;20310;-87
2022/06/29 07:19:58;;;;;;;0.10;0.00;;;21.00;99.90;;;;;;4939833;28;20187;-87
2022/06/29 07:22:24;;;;;;;0.10;0.00;;;21.10;99.90;;;;;;4949443;28;20207;-90
2022/06/29 07:24:49;;;;;;;0.10;0.10;;;21.10;99.90;;;;;;4934568;29;20651;-89
2022/06/29 07:27:15;;;;;;;0.10;0.00;;;21.10;99.90;;;;;;4942174;28;20273;-91
2022/06/29 07:29:41;;;;;;;0.10;0.00;;;21.20;99.90;;;;;;4931867;29;20719;-89
2022/06/29 07:32:07;;;;;;;0.10;0.10;;;21.40;99.90;;;;;;4936044;29;20456;-96
2022/06/29 07:34:33;;;;;;;0.10;0.00;;;21.50;99.90;;;;;;4944363;28;20557;-96
2022/06/29 07:36:58;;;;;;;0.10;0.00;;;21.50;99.90;;;;;;4954866;28;20997;-92
2022/06/29 07:39:25;;;;;;;0.10;0.00;;;21.70;99.90;;;;;;4935308;28;20711;-96
2022/06/29 07:41:50;;;;;;;0.10;0.00;;;21.70;99.90;;;;;;4933506;28;20671;-89
2022/06/29 07:44:16;;;;;;;0.10;0.00;;;21.60;99.90;;;;;;4948392;28;20493;-86
2022/06/29 07:46:41;;;;;;;0.10;0.00;;;21.70;99.90;;;;;;4948077;28;20195;-88
2022/06/29 07:49:06;;;;;;;0.10;0.00;;;21.70;99.90;;;;;;4951347;28;20273;-89
2022/06/29 07:51:32;;;;;;;0.10;0.00;;;22.00;99.90;;;;;;4949520;28;20635;-88
2022/06/29 07:53:58;;;;;;;0.10;0.00;;;22.10;99.90;;;;;;4948592;28;20191;-91
2022/06/29 07:56:23;;;;;;;0.10;0.00;;;22.20;99.90;;;;;;4950479;28;20765;-86
2022/06/29 07:58:49;;;;;;;0.10;0.00;;;22.20;99.90;;;;;;4948528;28;20213;-83
2022/06/29 08:01:16;;;;;;;0.10;0.00;;;22.30;99.90;;;;;;4952237;28;20560;-92
2022/06/29 08:03:42;;;;;;;0.10;0.10;;;22.30;99.90;;;;;;4940041;28;20190;-91
2022/06/29 08:06:07;;;;;;;0.10;0.00;;;22.30;99.90;;;;;;4946233;28;20452;-94
2022/06/29 08:08:33;;;;;;;0.10;0.00;;;22.30;99.90;;;;;;4929517;28;21061;-91
2022/06/29 08:10:58;;;;;;;0.10;0.00;;;22.00;99.90;;;;;;4949049;28;20187;-96
2022/06/29 08:13:24;;;;;;;0.10;0.00;;;22.10;99.90;;;;;;4946459;29;20182;-96
2022/06/29 08:15:50;;;;;;;0.10;0.00;;;22.10;99.90;;;;;;4938349;29;20214;-96
2022/06/29 08:18:16;;;;;;;0.10;0.00;;;22.20;99.90;;;;;;4947354;29;20197;-97
2022/06/29 08:20:43;;;;;;;0.10;0.00;;;22.40;99.90;;;;;;4943019;29;20654;-93
2022/06/29 08:23:09;;;;;;;0.10;0.00;;;22.60;99.90;;;;;;4958358;29;20469;-96
2022/06/29 08:25:35;;;;;;;0.10;0.00;;;22.80;99.90;;;;;;4962906;29;20459;-96
2022/06/29 08:28:02;;;;;;;0.10;0.00;;;22.90;99.90;;;;;;4956959;28;20450;-94
2022/06/29 08:30:28;;;;;;;0.10;0.00;;;23.10;99.90;;;;;;4943526;28;20485;-94
2022/06/29 08:32:54;;;;;;;0.00;0.00;;;22.80;99.90;;;;;;4953628;29;20469;-93
2022/06/29 08:35:19;;;;;;;0.00;0.00;;;22.60;99.90;;;;;;4940834;29;20447;-91
2022/06/29 08:37:46;;;;;;;0.10;0.00;;;23.00;99.90;;;;;;4948600;28;20651;-89
2022/06/29 08:40:14;;;;;;;0.10;0.00;;;22.80;99.90;;;;;;4929456;28;20194;-87
2022/06/29 08:42:41;;;;;;;0.10;0.00;;;22.80;99.90;;;;;;4940187;29;20459;-88
2022/06/29 08:45:08;;;;;;;0.10;0.00;;;22.80;99.90;;;;;;4937898;29;20580;-88
2022/06/29 08:47:35;;;;;;;0.10;0.00;;;23.10;99.90;;;;;;4952823;28;20548;-87
2022/06/29 08:50:05;;;;;;;0.10;0.00;;;23.20;99.90;;;;;;4937396;29;20478;-85
2022/06/29 08:52:34;;;;;;;0.10;0.00;;;23.40;99.90;;;;;;4950617;28;20450;-86
2022/06/29 08:55:00;;;;;;;0.10;0.00;;;23.50;99.90;;;;;;4924947;29;20478;-86
2022/06/29 08:57:26;;;;;;;0.10;0.00;;;23.50;99.90;;;;;;4938126;28;20483;-86
2022/06/29 08:59:53;;;;;;;0.10;0.00;;;23.60;99.90;;;;;;4945502;28;20529;-87
2022/06/29 09:02:18;;;;;;;0.10;0.00;;;23.50;99.90;;;;;;4943143;28;21052;-88
2022/06/29 09:04:44;;;;;;;0.10;0.00;;;23.50;99.90;;;;;;4944174;28;20454;-87
2022/06/29 09:07:10;;;;;;;0.10;0.00;;;23.70;99.90;;;;;;4952977;28;20639;-86
2022/06/29 09:10:08;;;;;;;0.10;0.00;;;24.00;99.90;;;;;;4935445;29;20281;-88
2022/06/29 09:12:34;;;;;;;0.10;0.00;;;24.30;99.90;;;;;;4941413;29;20195;-87
2022/06/29 09:15:01;;;;;;;0.10;0.00;;;23.80;99.90;;;;;;4950337;28;20946;-87
2022/06/29 09:17:31;;;;;;;0.10;0.00;;;23.60;99.90;;;;;;4934697;29;20237;-88
2022/06/29 09:19:56;;;;;;;0.10;0.00;;;23.80;99.90;;;;;;4947038;29;20451;-91
2022/06/29 09:22:22;;;;;;;0.10;0.00;;;24.00;99.90;;;;;;4936098;29;20465;-87
2022/06/29 09:24:49;;;;;;;0.10;0.00;;;24.20;99.90;;;;;;4928393;29;20974;-90
2022/06/29 09:27:15;;;;;;;0.10;0.00;;;24.30;99.90;;;;;;4949514;28;20455;-88
2022/06/29 09:29:42;;;;;;;0.10;0.00;;;24.10;99.90;;;;;;4939772;28;20457;-85
2022/06/29 09:32:13;;;;;;;0.10;0.00;;;24.50;99.90;;;;;;4946957;28;20198;-86
2022/06/29 09:34:43;;;;;;;0.10;0.00;;;24.50;99.90;;;;;;4933317;29;20597;-85
2022/06/29 09:37:12;;;;;;;0.10;0.00;;;24.70;99.90;;;;;;4946927;28;20965;-86
2022/06/29 09:39:42;;;;;;;0.00;0.00;;;24.80;99.90;;;;;;4933027;29;20458;-86
2022/06/29 09:42:11;;;;;;;0.00;0.00;;;24.90;99.90;;;;;;4929931;29;20446;-85
2022/06/29 09:44:37;;;;;;;0.00;0.00;;;25.50;99.90;;;;;;4947247;28;20502;-85
2022/06/29 09:47:06;;;;;;;0.00;0.00;;;25.80;99.90;;;;;;4938948;28;20457;-85
2022/06/29 09:49:33;;;;;;;0.00;0.00;;;26.10;99.90;;;;;;4944893;28;20469;-86
2022/06/29 09:52:00;;;;;;;0.00;0.00;;;26.30;99.90;;;;;;4946029;28;20501;-87
2022/06/29 09:54:40;;;;;;;0.00;0.00;;;26.50;99.90;;;;;;4944698;28;20450;-86
2022/06/29 09:57:07;;;;;;;0.00;0.00;;;26.10;99.90;;;;;;4947344;28;20849;-85
2022/06/29 10:02:36;;;;;;;0.00;0.00;;;25.50;99.90;;;;;;4949218;29;20461;-87
2022/06/29 10:05:05;;;;;;;0.00;0.00;;;25.30;99.90;;;;;;4948962;29;20540;-86
2022/06/29 10:07:32;;;;;;;0.00;0.00;;;25.50;99.90;;;;;;4947102;28;20512;-81
2022/06/29 10:09:59;;;;;;;0.00;0.00;;;25.80;99.90;;;;;;4930145;29;20446;-84
2022/06/29 10:16:05;;;;;;;0.10;0.00;;;25.90;99.90;;;;;;4949412;28;20573;-82
2022/06/29 10:18:50;;;;;;;0.10;0.00;;;25.90;99.90;;;;;;4947951;28;20465;-84
2022/06/29 10:21:30;;;;;;;0.10;0.00;;;25.60;99.90;;;;;;4949580;28;20462;-84
2022/06/29 10:23:56;;;;;;;0.10;0.00;;;25.60;99.90;;;;;;4945467;28;20445;-84
2022/06/29 10:26:30;;;;;;;0.10;0.00;;;25.60;99.90;;;;;;4946254;28;20442;-84
2022/06/29 10:28:57;;;;;;;0.10;0.00;;;25.70;99.90;;;;;;4945713;28;20437;-84
2022/06/29 10:31:50;;;;;;;0.10;0.00;;;25.70;99.90;;;;;;4930489;29;20442;-82
2022/06/29 10:35:28;;;;;;;0.10;0.00;;;26.10;99.90;;;;;;4951871;28;20454;-84
2022/06/29 10:37:30;;;;;;;0.03;0.00;;;26.00;99.90;;;;;;4932593;28;20485;-83
2022/06/29 10:39:58;;;;;;;0.10;0.00;;;25.70;99.90;;;;;;4926125;28;22459;-81
2022/06/29 10:45:25;;;;;;;0.00;0.00;;;26.40;99.90;;;;;;4894556;29;20575;-81
2022/06/29 10:47:54;;;;;;;0.00;0.00;;;26.30;99.90;;;;;;4932887;28;20477;-87
2022/06/29 10:50:25;;;;;;;0.00;0.00;;;26.00;99.90;;;;;;4941735;28;20450;-86
2022/06/29 10:52:56;;;;;;;0.10;0.00;;;25.70;99.90;;;;;;4946877;28;20537;-87
2022/06/29 10:55:24;;;;;;;0.10;0.00;;;25.60;99.90;;;;;;4952548;28;20445;-89
2022/06/29 10:57:50;;;;;;;0.10;0.00;;;25.20;99.90;;;;;;4945428;28;20485;-87
2022/06/29 11:00:19;;;;;;;0.10;0.00;;;25.40;99.90;;;;;;4933470;28;20434;-86
2022/06/29 11:02:45;;;;;;;0.10;0.00;;;25.50;99.90;;;;;;4922170;29;20183;-89
2022/06/29 11:05:11;;;;;;;0.10;0.00;;;25.70;99.90;;;;;;4928396;29;22329;-87
2022/06/29 11:13:11;;;;;;;0.10;0.00;;;26.10;99.90;;;;;;4943751;28;20482;-92
2022/06/29 11:15:41;;;;;;;0.10;0.00;;;26.40;99.90;;;;;;4935575;28;20447;-89
2022/06/29 11:18:15;;;;;;;0.10;0.00;;;26.80;99.90;;;;;;4923128;29;20457;-88
2022/06/29 11:20:43;;;;;;;0.10;0.00;;;27.60;99.90;;;;;;4946958;28;20446;-93
2022/06/29 11:23:12;;;;;;;0.10;0.00;;;28.10;99.90;;;;;;4942822;28;20490;-90
2022/06/29 11:25:44;;;;;;;0.10;0.00;;;28.70;99.90;;;;;;4948250;28;20931;-89
2022/06/29 11:28:10;;;;;;;0.10;0.00;;;28.80;99.90;;;;;;4931805;28;20457;-88
2022/06/29 11:30:36;;;;;;;0.10;0.00;;;29.20;99.90;;;;;;4931544;28;20461;-87
2022/06/29 11:33:13;;;;;;;0.10;0.00;;;30.00;99.90;;;;;;4948742;28;20907;-87
2022/06/29 11:35:42;;;;;;;0.10;0.00;;;29.60;99.90;;;;;;4948615;28;20571;-87
2022/06/29 11:38:08;;;;;;;0.10;0.00;;;28.90;99.90;;;;;;4951984;28;20512;-84
2022/06/29 11:40:36;;;;;;;0.10;0.00;;;28.20;99.90;;;;;;4950500;28;20508;-81
2022/06/29 11:43:14;;;;;;;0.10;0.00;;;28.10;99.90;;;;;;4952673;28;20457;-85
2022/06/29 11:45:47;;;;;;;0.10;0.00;;;28.00;99.90;;;;;;4947764;28;20472;-84
2022/06/29 11:48:17;;;;;;;0.10;0.00;;;28.00;99.90;;;;;;4939017;28;20454;-82
2022/06/29 11:50:43;;;;;;;0.10;0.00;;;28.90;99.90;;;;;;4947245;28;20443;-83
2022/06/29 11:53:09;;;;;;;0.10;0.00;;;29.00;99.90;;;;;;4946530;28;20580;-82
2022/06/29 11:55:43;;;;;;;0.10;0.00;;;28.20;99.90;;;;;;4947917;28;20922;-82
2022/06/29 11:58:18;;;;;;;0.10;0.00;;;28.60;99.90;;;;;;4929948;29;20447;-84
2022/06/29 12:00:44;;;;;;;0.10;0.00;;;28.30;99.90;;;;;;4948343;28;20906;-92
2022/06/29 12:03:13;;;;;;;0.10;0.00;;;28.60;99.90;;;;;;4952014;28;20535;-91
2022/06/29 12:05:58;;;;;;;0.10;0.00;;;28.00;99.90;;;;;;4946852;28;20197;-88
2022/06/29 12:08:24;;;;;;;0.10;0.00;;;27.90;99.90;;;;;;4947885;28;20877;-83
2022/06/29 12:10:50;;;;;;;0.10;0.10;;;28.00;99.90;;;;;;4948411;28;20798;-81
2022/06/29 12:13:16;;;;;;;0.10;0.00;;;27.70;99.90;;;;;;4945533;28;20447;-79
2022/06/29 12:15:41;;;;;;;0.10;0.00;;;27.40;99.90;;;;;;4947969;28;20210;-87
2022/06/29 12:18:07;;;;;;;0.10;0.00;;;27.90;99.90;;;;;;4947594;28;20450;-87
2022/06/29 12:20:33;;;;;;;0.10;0.00;;;28.30;99.90;;;;;;4952008;28;20190;-93
2022/06/29 12:22:58;;;;;;;0.10;0.00;;;28.00;99.90;;;;;;4947352;28;20186;-85
2022/06/29 12:25:24;;;;;;;0.10;0.00;;;28.00;99.90;;;;;;4932756;28;20190;-85
2022/06/29 12:27:50;;;;;;;0.10;0.00;;;27.50;99.90;;;;;;4931700;29;20544;-86
2022/06/29 12:30:16;;;;;;;0.10;0.00;;;27.80;99.90;;;;;;4934645;29;20180;-85
2022/06/29 12:32:42;;;;;;;0.10;0.10;;;27.80;99.90;;;;;;4925031;29;20465;-86
2022/06/29 12:35:08;;;;;;;0.10;0.00;;;27.30;99.90;;;;;;4932801;29;20826;-86
2022/06/29 12:37:33;;;;;;;0.10;0.00;;;27.50;99.90;;;;;;4949981;28;21133;-86
2022/06/29 12:39:59;;;;;;;0.10;0.00;;;27.80;99.90;;;;;;4930025;28;20530;-85
2022/06/29 12:42:24;;;;;;;0.10;0.00;;;27.20;99.90;;;;;;4953974;28;20644;-88
2022/06/29 12:44:50;;;;;;;0.10;0.00;;;27.80;99.90;;;;;;4951903;28;20226;-86
2022/06/29 12:47:15;;;;;;;0.10;0.00;;;28.10;99.90;;;;;;4945138;28;20296;-86
2022/06/29 12:49:41;;;;;;;0.10;0.00;;;28.60;99.90;;;;;;4950608;28;20190;-86
2022/06/29 12:52:07;;;;;;;0.10;0.00;;;28.60;99.90;;;;;;4935606;29;20202;-87
2022/06/29 12:54:32;;;;;;;0.10;0.00;;;27.60;99.90;;;;;;4930862;28;20178;-89
2022/06/29 12:56:58;;;;;;;0.10;0.00;;;27.50;99.90;;;;;;4928169;28;20219;-88
2022/06/29 12:59:23;;;;;;;0.10;0.00;;;28.00;99.90;;;;;;4942669;28;20696;-85
2022/06/29 13:01:51;;;;;;;0.10;0.00;;;29.10;99.90;;;;;;4950641;28;20221;-85
2022/06/29 13:04:17;;;;;;;0.10;0.00;;;29.60;99.90;;;;;;4951101;28;20179;-88
2022/06/29 13:06:42;;;;;;;0.10;0.00;;;30.10;99.90;;;;;;4928165;29;20501;-87